sensor_id;sensor_type;location;lat;lon;timestamp;P1;durP1;ratioP1;P2;durP2;ratioP2
11092;SDS011;5600;50.864;6.102;2023-04-01T00:02:17;57.30;;;3.37;;
11092;SDS011;5600;50.864;6.102;2023-04-01T00:05:18;75.97;;;4.13;;
11092;SDS011;5600;50.864;6.102;2023-04-01T00:08:19;73.20;;;3.97;;
11092;SDS011;5600;50.864;6.102;2023-04-01T00:11:20;75.40;;;4.10;;
11092;SDS011;5600;50.864;6.102;2023-04-01T00:14:21;67.47;;;3.57;;
11092;SDS011;5600;50.864;6.102;2023-04-01T00:17:23;73.43;;;4.13;;
11092;SDS011;5600;50.864;6.102;2023-04-01T00:20:24;71.00;;;3.70;;
11092;SDS011;5600;50.864;6.102;2023-04-01T00:23:25;65.00;;;3.53;;
11092;SDS011;5600;50.864;6.102;2023-04-01T00:26:26;76.57;;;4.10;;
11092;SDS011;5600;50.864;6.102;2023-04-01T00:29:27;86.37;;;4.33;;
11092;SDS011;5600;50.864;6.102;2023-04-01T00:32:30;81.53;;;4.10;;
11092;SDS011;5600;50.864;6.102;2023-04-01T00:35:31;56.97;;;3.23;;
11092;SDS011;5600;50.864;6.102;2023-04-01T00:38:32;73.83;;;3.83;;
11092;SDS011;5600;50.864;6.102;2023-04-01T00:41:33;64.53;;;3.40;;
11092;SDS011;5600;50.864;6.102;2023-04-01T00:44:36;69.63;;;3.70;;
11092;SDS011;5600;50.864;6.102;2023-04-01T00:47:38;75.17;;;3.83;;
11092;SDS011;5600;50.864;6.102;2023-04-01T00:50:39;72.70;;;3.77;;
11092;SDS011;5600;50.864;6.102;2023-04-01T00:53:45;66.53;;;3.57;;
11092;SDS011;5600;50.864;6.102;2023-04-01T00:56:54;99.30;;;4.90;;
11092;SDS011;5600;50.864;6.102;2023-04-01T00:59:58;90.27;;;4.40;;
11092;SDS011;5600;50.864;6.102;2023-04-01T01:02:59;77.97;;;3.83;;
11092;SDS011;5600;50.864;6.102;2023-04-01T01:09:31;68.30;;;3.60;;
11092;SDS011;5600;50.864;6.102;2023-04-01T01:16:14;70.77;;;3.67;;
11092;SDS011;5600;50.864;6.102;2023-04-01T01:19:33;74.10;;;3.83;;
11092;SDS011;5600;50.864;6.102;2023-04-01T01:23:02;79.63;;;3.97;;
11092;SDS011;5600;50.864;6.102;2023-04-01T01:26:25;63.47;;;3.37;;
11092;SDS011;5600;50.864;6.102;2023-04-01T01:32:55;71.63;;;3.83;;
11092;SDS011;5600;50.864;6.102;2023-04-01T01:36:01;66.90;;;3.60;;
11092;SDS011;5600;50.864;6.102;2023-04-01T01:39:07;72.03;;;3.73;;
11092;SDS011;5600;50.864;6.102;2023-04-01T01:42:11;75.53;;;3.83;;
11092;SDS011;5600;50.864;6.102;2023-04-01T01:45:16;60.40;;;3.33;;
11092;SDS011;5600;50.864;6.102;2023-04-01T01:48:20;68.00;;;3.57;;
11092;SDS011;5600;50.864;6.102;2023-04-01T01:51:21;78.60;;;3.90;;
11092;SDS011;5600;50.864;6.102;2023-04-01T01:54:23;60.00;;;3.13;;
11092;SDS011;5600;50.864;6.102;2023-04-01T01:57:25;59.23;;;3.10;;
11092;SDS011;5600;50.864;6.102;2023-04-01T02:00:35;90.80;;;4.47;;
11092;SDS011;5600;50.864;6.102;2023-04-01T02:03:36;75.57;;;3.77;;
11092;SDS011;5600;50.864;6.102;2023-04-01T02:06:39;76.20;;;3.80;;
11092;SDS011;5600;50.864;6.102;2023-04-01T02:09:47;66.80;;;3.37;;
11092;SDS011;5600;50.864;6.102;2023-04-01T02:12:48;75.23;;;3.73;;
11092;SDS011;5600;50.864;6.102;2023-04-01T02:15:50;81.50;;;3.97;;
11092;SDS011;5600;50.864;6.102;2023-04-01T02:18:57;79.33;;;3.90;;
11092;SDS011;5600;50.864;6.102;2023-04-01T02:22:00;111.23;;;5.13;;
11092;SDS011;5600;50.864;6.102;2023-04-01T02:25:05;81.63;;;4.00;;
11092;SDS011;5600;50.864;6.102;2023-04-01T02:28:08;81.13;;;4.00;;
11092;SDS011;5600;50.864;6.102;2023-04-01T02:31:10;76.77;;;3.80;;
11092;SDS011;5600;50.864;6.102;2023-04-01T02:34:12;72.97;;;3.80;;
11092;SDS011;5600;50.864;6.102;2023-04-01T02:37:13;51.97;;;2.77;;
11092;SDS011;5600;50.864;6.102;2023-04-01T02:40:15;101.10;;;4.80;;
11092;SDS011;5600;50.864;6.102;2023-04-01T02:43:16;56.70;;;3.10;;
11092;SDS011;5600;50.864;6.102;2023-04-01T02:46:19;72.67;;;3.77;;
11092;SDS011;5600;50.864;6.102;2023-04-01T02:49:20;83.50;;;4.17;;
11092;SDS011;5600;50.864;6.102;2023-04-01T02:52:21;89.17;;;4.37;;
11092;SDS011;5600;50.864;6.102;2023-04-01T02:55:22;67.47;;;3.53;;
11092;SDS011;5600;50.864;6.102;2023-04-01T02:58:23;81.70;;;4.13;;
11092;SDS011;5600;50.864;6.102;2023-04-01T03:01:24;58.30;;;3.17;;
11092;SDS011;5600;50.864;6.102;2023-04-01T03:04:25;63.83;;;3.33;;
11092;SDS011;5600;50.864;6.102;2023-04-01T03:07:26;82.17;;;4.23;;
11092;SDS011;5600;50.864;6.102;2023-04-01T03:10:28;80.63;;;4.07;;
11092;SDS011;5600;50.864;6.102;2023-04-01T03:13:29;83.30;;;4.07;;
11092;SDS011;5600;50.864;6.102;2023-04-01T03:16:30;75.13;;;3.73;;
11092;SDS011;5600;50.864;6.102;2023-04-01T03:19:31;55.83;;;3.00;;
11092;SDS011;5600;50.864;6.102;2023-04-01T03:22:34;67.50;;;3.63;;
11092;SDS011;5600;50.864;6.102;2023-04-01T03:25:35;84.83;;;4.33;;
11092;SDS011;5600;50.864;6.102;2023-04-01T03:28:36;70.77;;;3.70;;
11092;SDS011;5600;50.864;6.102;2023-04-01T03:31:37;75.50;;;3.83;;
11092;SDS011;5600;50.864;6.102;2023-04-01T03:34:38;83.23;;;4.13;;
11092;SDS011;5600;50.864;6.102;2023-04-01T03:37:39;77.03;;;3.83;;
11092;SDS011;5600;50.864;6.102;2023-04-01T03:40:42;69.10;;;3.53;;
11092;SDS011;5600;50.864;6.102;2023-04-01T03:43:43;86.87;;;4.37;;
11092;SDS011;5600;50.864;6.102;2023-04-01T03:46:44;68.07;;;3.50;;
11092;SDS011;5600;50.864;6.102;2023-04-01T03:49:45;69.57;;;3.63;;
11092;SDS011;5600;50.864;6.102;2023-04-01T03:52:46;52.07;;;2.80;;
11092;SDS011;5600;50.864;6.102;2023-04-01T03:55:47;79.50;;;4.00;;
11092;SDS011;5600;50.864;6.102;2023-04-01T03:58:49;90.70;;;4.43;;
11092;SDS011;5600;50.864;6.102;2023-04-01T04:01:50;83.77;;;4.27;;
11092;SDS011;5600;50.864;6.102;2023-04-01T04:04:51;67.90;;;3.73;;
11092;SDS011;5600;50.864;6.102;2023-04-01T04:07:55;83.83;;;4.13;;
11092;SDS011;5600;50.864;6.102;2023-04-01T04:10:56;90.47;;;4.50;;
11092;SDS011;5600;50.864;6.102;2023-04-01T04:13:58;72.33;;;3.73;;
11092;SDS011;5600;50.864;6.102;2023-04-01T04:17:00;84.43;;;4.53;;
11092;SDS011;5600;50.864;6.102;2023-04-01T04:20:01;58.53;;;3.17;;
11092;SDS011;5600;50.864;6.102;2023-04-01T04:23:03;102.67;;;5.27;;
11092;SDS011;5600;50.864;6.102;2023-04-01T04:26:06;96.93;;;4.97;;
11092;SDS011;5600;50.864;6.102;2023-04-01T04:29:08;82.13;;;4.60;;
11092;SDS011;5600;50.864;6.102;2023-04-01T04:32:10;60.90;;;3.83;;
11092;SDS011;5600;50.864;6.102;2023-04-01T04:35:11;85.23;;;4.77;;
11092;SDS011;5600;50.864;6.102;2023-04-01T04:38:13;76.87;;;4.43;;
11092;SDS011;5600;50.864;6.102;2023-04-01T04:41:15;73.63;;;4.30;;
11092;SDS011;5600;50.864;6.102;2023-04-01T04:44:21;83.23;;;4.80;;
11092;SDS011;5600;50.864;6.102;2023-04-01T04:47:22;68.53;;;4.10;;
11092;SDS011;5600;50.864;6.102;2023-04-01T04:50:23;65.87;;;3.90;;
11092;SDS011;5600;50.864;6.102;2023-04-01T04:53:24;85.60;;;4.50;;
11092;SDS011;5600;50.864;6.102;2023-04-01T04:56:26;60.23;;;3.80;;
11092;SDS011;5600;50.864;6.102;2023-04-01T04:59:38;49.50;;;3.30;;
11092;SDS011;5600;50.864;6.102;2023-04-01T05:02:49;67.33;;;3.93;;
11092;SDS011;5600;50.864;6.102;2023-04-01T05:05:52;56.93;;;3.53;;
11092;SDS011;5600;50.864;6.102;2023-04-01T05:08:53;80.83;;;4.40;;
11092;SDS011;5600;50.864;6.102;2023-04-01T05:11:54;71.37;;;4.00;;
11092;SDS011;5600;50.864;6.102;2023-04-01T05:14:58;81.00;;;4.67;;
11092;SDS011;5600;50.864;6.102;2023-04-01T05:17:59;90.07;;;4.93;;
11092;SDS011;5600;50.864;6.102;2023-04-01T05:21:00;73.50;;;4.40;;
11092;SDS011;5600;50.864;6.102;2023-04-01T05:24:01;93.60;;;5.10;;
11092;SDS011;5600;50.864;6.102;2023-04-01T05:27:05;111.30;;;6.03;;
11092;SDS011;5600;50.864;6.102;2023-04-01T05:30:09;92.53;;;5.20;;
11092;SDS011;5600;50.864;6.102;2023-04-01T05:33:18;70.80;;;4.47;;
11092;SDS011;5600;50.864;6.102;2023-04-01T05:36:19;86.37;;;5.27;;
11092;SDS011;5600;50.864;6.102;2023-04-01T05:39:20;79.80;;;5.03;;
11092;SDS011;5600;50.864;6.102;2023-04-01T05:42:21;65.37;;;4.47;;
11092;SDS011;5600;50.864;6.102;2023-04-01T05:45:22;74.07;;;5.10;;
11092;SDS011;5600;50.864;6.102;2023-04-01T05:48:42;75.13;;;5.23;;
11092;SDS011;5600;50.864;6.102;2023-04-01T05:51:43;74.30;;;5.50;;
11092;SDS011;5600;50.864;6.102;2023-04-01T05:54:44;77.53;;;6.03;;
11092;SDS011;5600;50.864;6.102;2023-04-01T05:57:45;81.90;;;5.90;;
11092;SDS011;5600;50.864;6.102;2023-04-01T06:00:48;107.60;;;7.00;;
11092;SDS011;5600;50.864;6.102;2023-04-01T06:03:50;79.43;;;5.83;;
11092;SDS011;5600;50.864;6.102;2023-04-01T06:06:51;92.37;;;6.43;;
11092;SDS011;5600;50.864;6.102;2023-04-01T06:09:52;67.97;;;5.43;;
11092;SDS011;5600;50.864;6.102;2023-04-01T06:13:11;68.20;;;5.70;;
11092;SDS011;5600;50.864;6.102;2023-04-01T06:16:49;126.67;;;8.07;;
11092;SDS011;5600;50.864;6.102;2023-04-01T06:20:09;78.83;;;5.80;;
11092;SDS011;5600;50.864;6.102;2023-04-01T06:23:26;71.57;;;5.40;;
11092;SDS011;5600;50.864;6.102;2023-04-01T06:26:48;55.70;;;4.80;;
11092;SDS011;5600;50.864;6.102;2023-04-01T06:29:57;82.23;;;5.77;;
11092;SDS011;5600;50.864;6.102;2023-04-01T06:54:09;59.47;;;4.73;;
11092;SDS011;5600;50.864;6.102;2023-04-01T06:57:38;56.07;;;4.47;;
11092;SDS011;5600;50.864;6.102;2023-04-01T07:00:43;133.73;;;7.77;;
11092;SDS011;5600;50.864;6.102;2023-04-01T07:03:55;69.07;;;5.00;;
11092;SDS011;5600;50.864;6.102;2023-04-01T07:07:04;81.83;;;5.57;;
11092;SDS011;5600;50.864;6.102;2023-04-01T07:10:25;101.73;;;6.17;;
11092;SDS011;5600;50.864;6.102;2023-04-01T07:14:06;87.43;;;5.80;;
11092;SDS011;5600;50.864;6.102;2023-04-01T07:17:23;62.20;;;4.50;;
11092;SDS011;5600;50.864;6.102;2023-04-01T07:20:29;75.43;;;5.03;;
11092;SDS011;5600;50.864;6.102;2023-04-01T07:23:42;68.30;;;4.93;;
11092;SDS011;5600;50.864;6.102;2023-04-01T07:27:10;93.20;;;5.57;;
11092;SDS011;5600;50.864;6.102;2023-04-01T07:30:15;80.53;;;4.87;;
11092;SDS011;5600;50.864;6.102;2023-04-01T07:33:26;84.90;;;5.30;;
11092;SDS011;5600;50.864;6.102;2023-04-01T07:47:03;104.27;;;5.83;;
11092;SDS011;5600;50.864;6.102;2023-04-01T07:50:24;97.27;;;5.30;;
11092;SDS011;5600;50.864;6.102;2023-04-01T07:53:36;90.87;;;5.27;;
11092;SDS011;5600;50.864;6.102;2023-04-01T07:57:03;67.90;;;4.37;;
11092;SDS011;5600;50.864;6.102;2023-04-01T08:06:57;52.37;;;3.67;;
11092;SDS011;5600;50.864;6.102;2023-04-01T08:10:21;97.43;;;5.33;;
11092;SDS011;5600;50.864;6.102;2023-04-01T08:13:53;49.07;;;3.50;;
11092;SDS011;5600;50.864;6.102;2023-04-01T08:20:56;69.23;;;4.30;;
11092;SDS011;5600;50.864;6.102;2023-04-01T08:24:22;50.97;;;4.13;;
11092;SDS011;5600;50.864;6.102;2023-04-01T08:27:50;81.67;;;5.73;;
11092;SDS011;5600;50.864;6.102;2023-04-01T08:31:01;101.67;;;5.77;;
11092;SDS011;5600;50.864;6.102;2023-04-01T08:34:45;68.77;;;4.93;;
11092;SDS011;5600;50.864;6.102;2023-04-01T08:37:45;98.67;;;5.60;;
11092;SDS011;5600;50.864;6.102;2023-04-01T08:41:10;79.70;;;5.27;;
11092;SDS011;5600;50.864;6.102;2023-04-01T09:09:09;84.07;;;4.63;;
11092;SDS011;5600;50.864;6.102;2023-04-01T09:12:26;74.37;;;4.23;;
11092;SDS011;5600;50.864;6.102;2023-04-01T09:22:13;77.00;;;4.70;;
11092;SDS011;5600;50.864;6.102;2023-04-01T09:25:27;82.83;;;4.60;;
11092;SDS011;5600;50.864;6.102;2023-04-01T09:28:38;82.97;;;4.67;;
11092;SDS011;5600;50.864;6.102;2023-04-01T09:35:23;60.63;;;3.83;;
11092;SDS011;5600;50.864;6.102;2023-04-01T09:51:42;92.17;;;5.37;;
11092;SDS011;5600;50.864;6.102;2023-04-01T09:55:06;52.17;;;3.47;;
11092;SDS011;5600;50.864;6.102;2023-04-01T09:58:26;73.80;;;4.50;;
11092;SDS011;5600;50.864;6.102;2023-04-01T10:11:59;69.97;;;4.17;;
11092;SDS011;5600;50.864;6.102;2023-04-01T10:21:59;61.27;;;4.27;;
11092;SDS011;5600;50.864;6.102;2023-04-01T10:25:24;52.10;;;3.40;;
11092;SDS011;5600;50.864;6.102;2023-04-01T10:45:21;58.47;;;3.93;;
11092;SDS011;5600;50.864;6.102;2023-04-01T10:59:52;55.27;;;4.00;;
11092;SDS011;5600;50.864;6.102;2023-04-01T11:17:06;91.03;;;5.13;;
11092;SDS011;5600;50.864;6.102;2023-04-01T11:24:07;88.63;;;5.37;;
11092;SDS011;5600;50.864;6.102;2023-04-01T11:31:22;71.00;;;4.40;;
11092;SDS011;5600;50.864;6.102;2023-04-01T11:52:06;61.07;;;5.03;;
11092;SDS011;5600;50.864;6.102;2023-04-01T11:55:28;73.20;;;5.23;;
11092;SDS011;5600;50.864;6.102;2023-04-01T12:15:53;78.27;;;5.43;;
11092;SDS011;5600;50.864;6.102;2023-04-01T12:19:02;101.00;;;6.20;;
11092;SDS011;5600;50.864;6.102;2023-04-01T12:25:55;61.20;;;4.73;;
11092;SDS011;5600;50.864;6.102;2023-04-01T12:35:27;85.07;;;5.70;;
11092;SDS011;5600;50.864;6.102;2023-04-01T12:42:31;105.43;;;6.50;;
11092;SDS011;5600;50.864;6.102;2023-04-01T12:45:59;115.37;;;7.20;;
11092;SDS011;5600;50.864;6.102;2023-04-01T12:52:09;82.40;;;6.30;;
11092;SDS011;5600;50.864;6.102;2023-04-01T13:12:06;72.67;;;4.80;;
11092;SDS011;5600;50.864;6.102;2023-04-01T13:35:14;76.77;;;5.17;;
11092;SDS011;5600;50.864;6.102;2023-04-01T13:42:05;43.93;;;3.67;;
11092;SDS011;5600;50.864;6.102;2023-04-01T13:48:25;55.23;;;4.90;;
11092;SDS011;5600;50.864;6.102;2023-04-01T13:51:44;56.70;;;4.33;;
11092;SDS011;5600;50.864;6.102;2023-04-01T14:12:09;59.27;;;4.63;;
11092;SDS011;5600;50.864;6.102;2023-04-01T14:35:37;62.60;;;4.80;;
11092;SDS011;5600;50.864;6.102;2023-04-01T14:48:50;79.80;;;5.63;;
11092;SDS011;5600;50.864;6.102;2023-04-01T14:51:56;77.70;;;5.70;;
11092;SDS011;5600;50.864;6.102;2023-04-01T14:55:20;87.73;;;6.20;;
11092;SDS011;5600;50.864;6.102;2023-04-01T14:58:40;68.70;;;5.23;;
11092;SDS011;5600;50.864;6.102;2023-04-01T15:01:50;40.83;;;4.30;;
11092;SDS011;5600;50.864;6.102;2023-04-01T15:28:17;64.37;;;5.50;;
11092;SDS011;5600;50.864;6.102;2023-04-01T15:31:40;52.00;;;4.83;;
11092;SDS011;5600;50.864;6.102;2023-04-01T15:38:36;70.63;;;5.23;;
11092;SDS011;5600;50.864;6.102;2023-04-01T15:47:59;86.77;;;6.00;;
11092;SDS011;5600;50.864;6.102;2023-04-01T16:04:28;84.70;;;5.50;;
11092;SDS011;5600;50.864;6.102;2023-04-01T16:11:10;83.47;;;5.87;;
11092;SDS011;5600;50.864;6.102;2023-04-01T16:17:54;64.73;;;4.67;;
11092;SDS011;5600;50.864;6.102;2023-04-01T16:21:27;61.07;;;4.80;;
11092;SDS011;5600;50.864;6.102;2023-04-01T16:24:45;49.10;;;4.23;;
11092;SDS011;5600;50.864;6.102;2023-04-01T16:28:03;49.40;;;4.03;;
11092;SDS011;5600;50.864;6.102;2023-04-01T16:31:16;43.17;;;3.57;;
11092;SDS011;5600;50.864;6.102;2023-04-01T16:34:34;62.60;;;4.57;;
11092;SDS011;5600;50.864;6.102;2023-04-01T16:37:52;39.43;;;3.60;;
11092;SDS011;5600;50.864;6.102;2023-04-01T16:41:46;42.30;;;3.70;;
11092;SDS011;5600;50.864;6.102;2023-04-01T16:45:01;53.57;;;4.20;;
11092;SDS011;5600;50.864;6.102;2023-04-01T16:48:21;52.23;;;4.23;;
11092;SDS011;5600;50.864;6.102;2023-04-01T16:55:16;80.97;;;5.47;;
11092;SDS011;5600;50.864;6.102;2023-04-01T16:59:44;115.27;;;7.10;;
11092;SDS011;5600;50.864;6.102;2023-04-01T17:02:43;60.37;;;4.87;;
11092;SDS011;5600;50.864;6.102;2023-04-01T17:06:07;46.67;;;4.03;;
11092;SDS011;5600;50.864;6.102;2023-04-01T17:12:53;45.60;;;3.93;;
11092;SDS011;5600;50.864;6.102;2023-04-01T17:16:25;56.70;;;4.53;;
11092;SDS011;5600;50.864;6.102;2023-04-01T17:22:55;48.30;;;4.43;;
11092;SDS011;5600;50.864;6.102;2023-04-01T17:44:03;69.43;;;5.93;;
11092;SDS011;5600;50.864;6.102;2023-04-01T17:47:22;57.87;;;5.60;;
11092;SDS011;5600;50.864;6.102;2023-04-01T18:04:40;80.30;;;6.20;;
11092;SDS011;5600;50.864;6.102;2023-04-01T18:07:57;73.77;;;5.90;;
11092;SDS011;5600;50.864;6.102;2023-04-01T18:14:20;83.57;;;6.57;;
11092;SDS011;5600;50.864;6.102;2023-04-01T18:24:31;83.57;;;6.93;;
11092;SDS011;5600;50.864;6.102;2023-04-01T18:27:41;54.50;;;5.63;;
11092;SDS011;5600;50.864;6.102;2023-04-01T18:30:57;78.23;;;7.17;;
11092;SDS011;5600;50.864;6.102;2023-04-01T18:34:10;67.53;;;6.33;;
11092;SDS011;5600;50.864;6.102;2023-04-01T18:37:37;41.37;;;6.03;;
11092;SDS011;5600;50.864;6.102;2023-04-01T18:40:43;50.77;;;6.20;;
11092;SDS011;5600;50.864;6.102;2023-04-01T18:43:53;58.53;;;7.00;;
11092;SDS011;5600;50.864;6.102;2023-04-01T18:50:37;83.53;;;8.47;;
11092;SDS011;5600;50.864;6.102;2023-04-01T18:53:40;71.73;;;6.43;;
11092;SDS011;5600;50.864;6.102;2023-04-01T18:56:46;59.60;;;5.70;;
11092;SDS011;5600;50.864;6.102;2023-04-01T18:59:51;65.50;;;5.93;;
11092;SDS011;5600;50.864;6.102;2023-04-01T19:02:58;87.07;;;6.80;;
11092;SDS011;5600;50.864;6.102;2023-04-01T19:06:08;63.07;;;6.03;;
11092;SDS011;5600;50.864;6.102;2023-04-01T19:15:58;65.97;;;6.17;;
11092;SDS011;5600;50.864;6.102;2023-04-01T19:28:52;54.53;;;5.00;;
11092;SDS011;5600;50.864;6.102;2023-04-01T19:38:38;56.03;;;5.10;;
11092;SDS011;5600;50.864;6.102;2023-04-01T19:41:55;56.87;;;5.23;;
11092;SDS011;5600;50.864;6.102;2023-04-01T19:58:05;60.90;;;5.53;;
11092;SDS011;5600;50.864;6.102;2023-04-01T20:01:12;75.33;;;6.43;;
11092;SDS011;5600;50.864;6.102;2023-04-01T20:04:25;79.80;;;6.73;;
11092;SDS011;5600;50.864;6.102;2023-04-01T20:07:43;36.90;;;4.43;;
11092;SDS011;5600;50.864;6.102;2023-04-01T20:11:04;45.37;;;4.83;;
11092;SDS011;5600;50.864;6.102;2023-04-01T20:14:13;55.77;;;5.47;;
11092;SDS011;5600;50.864;6.102;2023-04-01T20:20:37;46.70;;;4.70;;
11092;SDS011;5600;50.864;6.102;2023-04-01T20:27:38;58.67;;;5.57;;
11092;SDS011;5600;50.864;6.102;2023-04-01T20:37:21;42.33;;;5.50;;
11092;SDS011;5600;50.864;6.102;2023-04-01T20:40:47;48.10;;;5.63;;
11092;SDS011;5600;50.864;6.102;2023-04-01T20:44:04;57.80;;;6.17;;
11092;SDS011;5600;50.864;6.102;2023-04-01T20:53:42;56.23;;;5.80;;
11092;SDS011;5600;50.864;6.102;2023-04-01T21:33:58;30.57;;;5.80;;
11092;SDS011;5600;50.864;6.102;2023-04-01T21:37:18;60.57;;;7.17;;
11092;SDS011;5600;50.864;6.102;2023-04-01T21:40:32;78.13;;;7.73;;
11092;SDS011;5600;50.864;6.102;2023-04-01T21:50:47;51.10;;;6.00;;
11092;SDS011;5600;50.864;6.102;2023-04-01T22:00:18;60.37;;;6.87;;
11092;SDS011;5600;50.864;6.102;2023-04-01T22:03:28;64.93;;;6.63;;
11092;SDS011;5600;50.864;6.102;2023-04-01T22:06:51;50.33;;;6.30;;
11092;SDS011;5600;50.864;6.102;2023-04-01T22:10:19;49.90;;;6.30;;
11092;SDS011;5600;50.864;6.102;2023-04-01T22:13:33;82.10;;;8.27;;
11092;SDS011;5600;50.864;6.102;2023-04-01T22:19:59;61.33;;;8.07;;
11092;SDS011;5600;50.864;6.102;2023-04-01T22:23:21;72.27;;;8.97;;
11092;SDS011;5600;50.864;6.102;2023-04-01T22:29:38;63.53;;;6.93;;
11092;SDS011;5600;50.864;6.102;2023-04-01T22:43:01;47.50;;;6.53;;
11092;SDS011;5600;50.864;6.102;2023-04-01T22:49:18;58.53;;;8.27;;
11092;SDS011;5600;50.864;6.102;2023-04-01T22:52:36;73.57;;;9.47;;
11092;SDS011;5600;50.864;6.102;2023-04-01T22:55:41;57.30;;;8.67;;
11092;SDS011;5600;50.864;6.102;2023-04-01T22:58:50;58.53;;;10.30;;
11092;SDS011;5600;50.864;6.102;2023-04-01T23:02:07;60.73;;;11.17;;
11092;SDS011;5600;50.864;6.102;2023-04-01T23:05:15;73.53;;;10.77;;
11092;SDS011;5600;50.864;6.102;2023-04-01T23:12:03;51.97;;;9.80;;
11092;SDS011;5600;50.864;6.102;2023-04-01T23:15:10;62.10;;;9.97;;
11092;SDS011;5600;50.864;6.102;2023-04-01T23:18:27;74.93;;;8.73;;
11092;SDS011;5600;50.864;6.102;2023-04-01T23:25:15;66.80;;;7.67;;
11092;SDS011;5600;50.864;6.102;2023-04-01T23:31:31;57.27;;;7.17;;
11092;SDS011;5600;50.864;6.102;2023-04-01T23:34:40;74.10;;;8.40;;
11092;SDS011;5600;50.864;6.102;2023-04-01T23:37:48;68.47;;;7.77;;
11092;SDS011;5600;50.864;6.102;2023-04-01T23:40:50;49.70;;;6.60;;
11092;SDS011;5600;50.864;6.102;2023-04-01T23:44:08;36.97;;;5.63;;
11092;SDS011;5600;50.864;6.102;2023-04-01T23:47:14;42.03;;;5.60;;
11092;SDS011;5600;50.864;6.102;2023-04-01T23:53:24;67.33;;;6.43;;
11092;SDS011;5600;50.864;6.102;2023-04-01T23:56:35;74.67;;;7.03;;
11092;SDS011;5600;50.864;6.102;2023-04-01T23:59:40;68.77;;;6.33;;
